KTEX/TEX METAR and TAF weather

Enter ICAO airport designator
Station Type Date Time Source
KTEX METAR 2019/06/17 12:35 UTC NOAA

KTEX 171235Z AUTO 00000KT 10SM SCT060 SCT100 BKN120 07/03 A3031 RMK AO2


Station Type Date Time Source
KTEX Decoded METAR 2019/06/17 12:35 UTC NOAA

Telluride, Telluride Regional Airport, CO, United States (KTEX) 37-57-14N 107-54-31W
Jun 17, 2019 - 08:35 AM EDT / 2019.06.17 1235 UTC
Wind: Calm:0
Visibility: 10 mile(s):0
Sky conditions: mostly cloudy
Temperature: 44 F (7 C)
Dew Point: 37 F (3 C)
Relative Humidity: 75%
Pressure (altimeter): 30.31 in. Hg (1026 hPa)
ob: KTEX 171235Z AUTO 00000KT 10SM SCT060 SCT100 BKN120 07/03 A3031 RMK AO2
cycle: 12

Station Type Date Time Source
KTEX TAF 2019/06/17 12:36 UTC NOAA

TAF KTEX 171133Z 1712/1812 VRB05KT P6SM SCT070 BKN100
FM171600 24005KT P6SM VCSH SCT050 BKN150
FM180000 16006KT P6SM VCSH SCT040 BKN100
FM180400 15005KT P6SM VCSH FEW045 SCT100
FM180600 VRB04KT P6SM FEW045 FEW120

Example: see airport list